createdAt,value
2022-08-30T00:02:25.473Z,17.70
2022-08-30T00:04:54.417Z,17.70
2022-08-30T00:07:22.195Z,17.70
2022-08-30T00:09:49.333Z,17.60
2022-08-30T00:12:16.475Z,17.60
2022-08-30T00:14:43.797Z,17.60
2022-08-30T00:17:11.425Z,17.50
2022-08-30T00:19:38.701Z,17.40
2022-08-30T00:22:07.302Z,17.40
2022-08-30T00:24:34.299Z,17.30
2022-08-30T00:27:01.298Z,17.20
2022-08-30T00:29:28.427Z,17.20
2022-08-30T00:31:55.391Z,17.10
2022-08-30T00:34:23.376Z,17.10
2022-08-30T00:36:50.453Z,17.10
2022-08-30T00:39:19.283Z,17.10
2022-08-30T00:41:47.662Z,17.10
2022-08-30T00:44:14.833Z,16.90
2022-08-30T00:46:43.177Z,16.80
2022-08-30T00:49:13.920Z,16.80
2022-08-30T00:51:43.260Z,16.70
2022-08-30T00:54:12.621Z,16.70
2022-08-30T00:56:40.468Z,16.70
2022-08-30T00:59:08.989Z,16.70
2022-08-30T01:01:38.125Z,16.50
2022-08-30T01:04:09.279Z,16.50
2022-08-30T01:06:37.559Z,16.50
2022-08-30T01:09:06.816Z,16.50
2022-08-30T01:11:35.962Z,16.40
2022-08-30T01:14:04.832Z,16.40
2022-08-30T01:16:33.896Z,16.30
2022-08-30T01:19:03.074Z,16.10
2022-08-30T01:21:46.413Z,16.10
2022-08-30T01:24:14.236Z,16.10
2022-08-30T01:26:42.203Z,16.20
2022-08-30T01:29:13.685Z,16.20
2022-08-30T01:31:40.680Z,16.30
2022-08-30T01:34:08.213Z,16.20
2022-08-30T01:36:42.937Z,16.20
2022-08-30T01:39:17.418Z,16.20
2022-08-30T01:41:45.408Z,16.10
2022-08-30T01:44:13.155Z,16.10
2022-08-30T01:46:46.247Z,16.00
2022-08-30T01:49:16.999Z,15.80
2022-08-30T01:51:45.972Z,15.70
2022-08-30T01:54:13.019Z,15.80
2022-08-30T01:56:40.105Z,15.80
2022-08-30T01:59:07.078Z,15.80
2022-08-30T02:01:37.095Z,15.70
2022-08-30T02:04:05.329Z,15.70
2022-08-30T02:06:32.371Z,15.70
2022-08-30T02:08:59.763Z,15.70
2022-08-30T02:11:27.029Z,15.70
2022-08-30T02:13:54.040Z,15.60
2022-08-30T02:16:23.780Z,15.50
2022-08-30T02:18:55.036Z,15.50
2022-08-30T02:21:23.641Z,15.50
2022-08-30T02:23:51.310Z,15.50
2022-08-30T02:26:18.947Z,15.50
2022-08-30T02:28:50.105Z,15.50
2022-08-30T02:31:20.402Z,15.60
2022-08-30T02:33:50.534Z,15.70
2022-08-30T02:36:17.980Z,15.40
2022-08-30T02:38:45.274Z,15.30
2022-08-30T02:41:12.155Z,15.30
2022-08-30T02:43:39.100Z,15.30
2022-08-30T02:46:06.623Z,15.40
2022-08-30T02:48:34.180Z,15.40
2022-08-30T02:51:09.632Z,15.50
2022-08-30T02:53:40.097Z,15.30
2022-08-30T02:56:07.684Z,15.30
2022-08-30T02:58:34.557Z,15.30
2022-08-30T03:01:01.938Z,15.20
2022-08-30T03:03:29.042Z,15.20
2022-08-30T03:05:55.935Z,15.30
2022-08-30T03:08:23.037Z,15.10
2022-08-30T03:10:50.392Z,15.20
2022-08-30T03:13:17.473Z,15.20
2022-08-30T03:15:44.523Z,15.20
2022-08-30T03:18:11.346Z,15.20
2022-08-30T03:20:38.782Z,15.10
2022-08-30T03:23:05.735Z,15.10
2022-08-30T03:25:33.940Z,15.10
2022-08-30T03:28:01.080Z,15.00
2022-08-30T03:30:28.149Z,14.80
2022-08-30T03:32:55.026Z,14.70
2022-08-30T03:35:21.881Z,14.70
2022-08-30T03:37:49.701Z,14.70
2022-08-30T03:40:23.318Z,14.70
2022-08-30T03:42:50.718Z,14.80
2022-08-30T03:45:19.122Z,14.70
2022-08-30T03:47:46.128Z,14.80
2022-08-30T03:50:14.412Z,14.80
2022-08-30T03:52:41.387Z,14.80
2022-08-30T03:55:08.893Z,14.80
2022-08-30T03:57:36.673Z,14.70
2022-08-30T04:00:06.672Z,14.70
2022-08-30T04:02:33.614Z,14.70
2022-08-30T04:05:00.569Z,14.80
2022-08-30T04:07:27.437Z,14.70
2022-08-30T04:09:54.349Z,14.70
2022-08-30T04:12:22.953Z,14.70
2022-08-30T04:14:50.266Z,14.70
2022-08-30T04:17:17.152Z,14.80
2022-08-30T04:19:43.996Z,14.80
2022-08-30T04:22:10.975Z,14.80
2022-08-30T04:24:38.488Z,14.80
2022-08-30T04:27:05.631Z,14.70
2022-08-30T04:29:33.752Z,14.60
2022-08-30T04:32:00.763Z,14.60
2022-08-30T04:34:27.825Z,14.60
2022-08-30T04:36:54.664Z,14.60
2022-08-30T04:39:21.535Z,14.50
2022-08-30T04:41:48.538Z,14.50
2022-08-30T04:44:19.654Z,14.50
2022-08-30T04:46:47.170Z,14.50
2022-08-30T04:49:14.117Z,14.50
2022-08-30T04:51:41.263Z,14.60
2022-08-30T04:54:08.229Z,14.60
2022-08-30T04:56:35.236Z,14.60
2022-08-30T04:59:04.379Z,14.60
2022-08-30T05:01:35.260Z,14.60
2022-08-30T05:04:12.049Z,14.70
2022-08-30T05:06:38.939Z,14.80
2022-08-30T05:09:05.926Z,14.60
2022-08-30T05:11:33.050Z,14.70
2022-08-30T05:14:00.035Z,14.60
2022-08-30T05:16:27.370Z,14.60
2022-08-30T05:18:54.663Z,14.50
2022-08-30T05:21:26.655Z,14.60
2022-08-30T05:23:56.063Z,14.60
2022-08-30T05:26:25.840Z,14.60
2022-08-30T05:28:53.097Z,14.60
2022-08-30T05:31:29.957Z,14.60
2022-08-30T05:33:57.171Z,14.80
2022-08-30T05:36:26.585Z,14.70
2022-08-30T05:38:54.245Z,14.70
2022-08-30T05:41:22.931Z,14.70
2022-08-30T05:43:57.972Z,14.80
2022-08-30T05:46:25.859Z,14.90
2022-08-30T05:48:52.811Z,15.00
2022-08-30T05:51:23.243Z,14.90
2022-08-30T05:53:51.709Z,14.90
2022-08-30T05:56:21.905Z,14.90
2022-08-30T05:58:52.384Z,15.00
2022-08-30T06:01:31.909Z,15.00
2022-08-30T06:04:03.887Z,15.10
2022-08-30T06:06:33.169Z,15.20
2022-08-30T06:09:00.083Z,15.30
2022-08-30T06:11:28.120Z,15.30
2022-08-30T06:13:55.859Z,15.30
2022-08-30T06:16:26.058Z,15.40
2022-08-30T06:18:54.279Z,15.50
2022-08-30T06:21:26.905Z,15.60
2022-08-30T06:23:54.384Z,15.80
2022-08-30T06:26:21.936Z,15.80
2022-08-30T06:28:49.286Z,15.90
2022-08-30T06:31:18.429Z,16.00
2022-08-30T06:33:46.433Z,16.10
2022-08-30T06:36:17.915Z,16.10
2022-08-30T06:38:45.504Z,16.30
2022-08-30T06:41:16.099Z,16.40
2022-08-30T06:43:48.698Z,16.70
2022-08-30T06:46:22.904Z,16.90
2022-08-30T06:48:50.024Z,16.90
2022-08-30T06:51:21.400Z,16.90
2022-08-30T06:53:51.886Z,17.00
2022-08-30T06:56:20.210Z,17.10
2022-08-30T06:58:47.677Z,17.40
2022-08-30T07:01:21.166Z,17.60
2022-08-30T07:03:48.555Z,17.60
2022-08-30T07:06:16.363Z,17.70
2022-08-30T07:08:45.755Z,17.80
2022-08-30T07:11:12.779Z,18.10
2022-08-30T07:13:40.000Z,18.00
2022-08-30T07:16:14.826Z,18.10
2022-08-30T07:18:50.812Z,18.10
2022-08-30T07:21:24.245Z,18.20
2022-08-30T07:23:55.438Z,18.40
2022-08-30T07:26:26.174Z,18.60
2022-08-30T07:28:55.886Z,18.40
2022-08-30T07:31:24.206Z,18.40
2022-08-30T07:33:51.413Z,18.70
2022-08-30T07:36:19.572Z,19.00
2022-08-30T07:38:47.179Z,19.20
2022-08-30T07:41:19.816Z,19.40
2022-08-30T07:43:47.551Z,19.40
2022-08-30T07:46:15.815Z,19.60
2022-08-30T07:48:44.261Z,19.60
2022-08-30T07:51:16.953Z,19.70
2022-08-30T07:53:43.983Z,19.80
2022-08-30T07:56:11.169Z,20.00
2022-08-30T07:58:38.339Z,19.80
2022-08-30T08:01:07.606Z,19.70
2022-08-30T08:03:35.473Z,19.90
2022-08-30T08:06:07.555Z,20.20
2022-08-30T08:08:34.677Z,20.30
2022-08-30T08:11:20.887Z,20.40
2022-08-30T08:13:53.443Z,20.60
2022-08-30T08:16:27.157Z,20.40
2022-08-30T08:18:54.817Z,20.60
2022-08-30T08:21:24.133Z,20.80
2022-08-30T08:23:51.459Z,20.80
2022-08-30T08:26:19.186Z,20.90
2022-08-30T08:28:47.259Z,21.00
2022-08-30T08:31:33.650Z,21.20
2022-08-30T08:34:03.174Z,21.30
2022-08-30T08:36:33.297Z,21.50
2022-08-30T08:39:01.228Z,21.50
2022-08-30T08:41:47.024Z,21.70
2022-08-30T08:44:34.801Z,21.80
2022-08-30T08:47:16.123Z,21.70
2022-08-30T08:49:46.738Z,21.70
2022-08-30T08:52:38.628Z,21.60
2022-08-30T08:55:14.805Z,21.50
2022-08-30T08:57:42.381Z,21.60
2022-08-30T09:00:12.420Z,21.60
2022-08-30T09:02:55.850Z,21.90
2022-08-30T09:05:26.123Z,21.90
2022-08-30T09:08:04.578Z,21.90
2022-08-30T09:10:49.813Z,22.30
2022-08-30T09:13:18.851Z,22.60
2022-08-30T09:15:48.880Z,22.70
2022-08-30T09:18:39.954Z,22.60
2022-08-30T09:21:09.529Z,22.30
2022-08-30T09:23:36.704Z,22.60
2022-08-30T09:26:06.770Z,22.40
2022-08-30T09:28:44.229Z,22.60
2022-08-30T09:31:48.960Z,22.90
2022-08-30T09:34:20.435Z,23.10
2022-08-30T09:36:53.987Z,23.20
2022-08-30T09:39:33.687Z,23.20
2022-08-30T09:42:25.623Z,23.50
2022-08-30T09:44:53.979Z,23.60
2022-08-30T09:47:27.895Z,23.80
2022-08-30T09:50:17.515Z,24.20
2022-08-30T09:52:55.573Z,24.50
2022-08-30T09:55:44.431Z,24.50
2022-08-30T09:58:40.274Z,24.60
2022-08-30T10:01:15.782Z,24.60
2022-08-30T10:04:09.512Z,24.50
2022-08-30T10:06:54.322Z,24.60
2022-08-30T10:09:36.264Z,24.40
2022-08-30T10:12:15.420Z,24.70
2022-08-30T10:15:01.132Z,24.90
2022-08-30T10:17:39.058Z,25.10
2022-08-30T10:20:26.080Z,25.40
2022-08-30T10:23:04.746Z,25.60
2022-08-30T10:25:36.439Z,25.60
2022-08-30T10:28:03.852Z,26.00
2022-08-30T10:30:36.381Z,26.30
2022-08-30T10:33:08.909Z,26.20
2022-08-30T10:35:49.427Z,26.20
2022-08-30T10:38:25.549Z,26.40
2022-08-30T10:41:26.060Z,25.80
2022-08-30T10:44:30.477Z,26.40
2022-08-30T10:47:18.503Z,26.60
2022-08-30T10:49:55.676Z,26.50
2022-08-30T10:52:26.235Z,26.50
2022-08-30T10:55:19.105Z,26.80
2022-08-30T10:57:47.515Z,26.60
2022-08-30T11:00:25.407Z,26.70
2022-08-30T11:03:24.505Z,26.70
2022-08-30T11:06:12.908Z,26.80
2022-08-30T11:09:02.508Z,26.50
2022-08-30T11:11:47.486Z,26.40
2022-08-30T11:14:18.237Z,26.30
2022-08-30T11:16:48.784Z,26.20
2022-08-30T11:19:26.567Z,26.10
2022-08-30T11:22:28.773Z,26.20
2022-08-30T11:25:09.795Z,26.70
2022-08-30T11:27:52.863Z,27.20
2022-08-30T11:33:13.067Z,27.60
2022-08-30T11:35:48.677Z,27.50
2022-08-30T11:38:42.010Z,27.90
2022-08-30T11:41:30.282Z,28.10
2022-08-30T11:44:21.733Z,28.30
2022-08-30T11:46:49.870Z,28.70
2022-08-30T11:49:19.877Z,28.70
2022-08-30T11:52:27.359Z,28.80
2022-08-30T11:55:31.714Z,28.90
2022-08-30T11:58:37.296Z,28.80
2022-08-30T12:01:41.809Z,29.20
2022-08-30T12:04:19.824Z,29.10
2022-08-30T12:06:49.304Z,29.10
2022-08-30T12:09:26.522Z,29.10
2022-08-30T12:12:09.802Z,28.90
2022-08-30T12:14:49.027Z,28.90
2022-08-30T12:17:52.177Z,28.70
2022-08-30T12:20:25.320Z,28.80
2022-08-30T12:22:53.362Z,28.70
2022-08-30T12:25:28.923Z,29.20
2022-08-30T12:28:30.267Z,29.60
2022-08-30T12:31:14.407Z,29.70
2022-08-30T12:33:45.441Z,29.50
2022-08-30T12:36:34.136Z,29.50
2022-08-30T12:39:18.416Z,29.50
2022-08-30T12:41:45.963Z,29.00
2022-08-30T12:44:28.091Z,28.40
2022-08-30T12:47:03.068Z,28.10
2022-08-30T12:49:35.653Z,28.10
2022-08-30T12:52:28.922Z,28.50
2022-08-30T12:55:23.002Z,28.60
2022-08-30T12:58:04.180Z,29.10
2022-08-30T13:00:35.886Z,29.40
2022-08-30T13:03:24.237Z,29.20
2022-08-30T13:05:53.151Z,28.60
2022-08-30T13:08:44.918Z,28.50
2022-08-30T13:11:25.091Z,28.70
2022-08-30T13:14:19.346Z,29.40
2022-08-30T13:16:46.851Z,30.00
2022-08-30T13:19:33.420Z,30.50
2022-08-30T13:22:01.881Z,31.30
2022-08-30T13:24:30.592Z,31.30
2022-08-30T13:27:04.377Z,31.40
2022-08-30T13:29:32.258Z,31.50
2022-08-30T13:31:59.364Z,31.30
2022-08-30T13:34:26.774Z,32.40
2022-08-30T13:36:57.230Z,33.10
2022-08-30T13:39:25.029Z,33.80
2022-08-30T13:41:52.450Z,33.00
2022-08-30T13:44:19.850Z,33.20
2022-08-30T13:46:54.511Z,32.00
2022-08-30T13:49:47.106Z,32.20
2022-08-30T13:52:25.776Z,32.40
2022-08-30T13:54:55.884Z,32.70
2022-08-30T14:00:17.934Z,33.80
2022-08-30T14:02:51.616Z,34.30
2022-08-30T14:10:59.717Z,33.60
2022-08-30T14:13:29.241Z,33.70
2022-08-30T14:18:46.727Z,34.80
2022-08-30T14:21:13.845Z,35.80
2022-08-30T14:23:40.684Z,36.10
2022-08-30T14:26:33.576Z,35.10
2022-08-30T14:29:02.879Z,34.40
2022-08-30T14:31:32.761Z,33.60
2022-08-30T14:34:01.907Z,33.40
2022-08-30T14:36:31.137Z,33.80
2022-08-30T14:38:58.473Z,35.00
2022-08-30T14:41:25.591Z,34.80
2022-08-30T14:43:53.040Z,34.30
2022-08-30T14:46:20.147Z,34.10
2022-08-30T14:48:47.109Z,34.60
2022-08-30T14:51:16.979Z,35.10
2022-08-30T14:53:44.499Z,35.60
2022-08-30T14:56:15.915Z,35.90
2022-08-30T14:58:43.426Z,36.10
2022-08-30T15:01:12.369Z,37.00
2022-08-30T15:03:40.682Z,37.20
2022-08-30T15:06:08.339Z,38.00
2022-08-30T15:08:37.800Z,37.20
2022-08-30T15:11:12.010Z,36.70
2022-08-30T15:13:40.289Z,36.70
2022-08-30T15:16:27.369Z,36.70
2022-08-30T15:18:55.254Z,36.10
2022-08-30T15:21:27.729Z,35.90
2022-08-30T15:23:54.901Z,35.10
2022-08-30T15:26:22.407Z,34.60
2022-08-30T15:28:49.761Z,33.70
2022-08-30T15:31:19.812Z,33.00
2022-08-30T15:33:46.750Z,32.40
2022-08-30T15:36:14.049Z,31.80
2022-08-30T15:38:42.428Z,31.50
2022-08-30T15:41:12.483Z,31.20
2022-08-30T15:43:43.545Z,31.40
2022-08-30T15:46:29.507Z,31.40
2022-08-30T15:49:00.707Z,31.40
2022-08-30T15:51:27.835Z,31.30
2022-08-30T15:53:54.775Z,31.30
2022-08-30T15:56:22.017Z,31.30
2022-08-30T15:58:49.126Z,31.20
2022-08-30T16:01:30.362Z,31.00
2022-08-30T16:03:59.109Z,30.70
2022-08-30T16:06:29.413Z,30.40
2022-08-30T16:08:57.227Z,30.40
2022-08-30T16:11:25.186Z,30.60
2022-08-30T16:13:56.945Z,30.20
2022-08-30T16:16:24.645Z,30.10
2022-08-30T16:18:53.901Z,30.30
2022-08-30T16:21:25.151Z,29.90
2022-08-30T16:23:55.167Z,29.80
2022-08-30T16:26:22.612Z,29.80
2022-08-30T16:28:49.850Z,29.90
2022-08-30T16:31:18.380Z,30.00
2022-08-30T16:33:46.463Z,29.90
2022-08-30T16:36:14.287Z,29.60
2022-08-30T16:38:41.421Z,29.50
2022-08-30T16:41:11.570Z,29.40
2022-08-30T16:43:39.598Z,29.10
2022-08-30T16:46:11.258Z,28.90
2022-08-30T16:48:39.435Z,28.80
2022-08-30T16:51:11.664Z,28.80
2022-08-30T16:53:40.095Z,28.70
2022-08-30T16:56:16.566Z,28.60
2022-08-30T16:58:44.734Z,28.40
2022-08-30T17:01:12.889Z,28.40
2022-08-30T17:03:40.773Z,28.30
2022-08-30T17:06:08.349Z,28.20
2022-08-30T17:08:35.391Z,28.20
2022-08-30T17:11:03.373Z,28.00
2022-08-30T17:13:31.013Z,27.90
2022-08-30T17:16:00.254Z,27.80
2022-08-30T17:18:27.185Z,27.70
2022-08-30T17:20:54.181Z,27.40
2022-08-30T17:23:22.358Z,27.30
2022-08-30T17:25:50.605Z,27.20
2022-08-30T17:28:17.918Z,27.30
2022-08-30T17:30:47.026Z,27.10
2022-08-30T17:33:15.193Z,27.00
2022-08-30T17:35:45.102Z,26.90
2022-08-30T17:38:12.432Z,26.80
2022-08-30T17:40:39.597Z,26.80
2022-08-30T17:43:08.002Z,26.70
2022-08-30T17:45:35.074Z,26.60
2022-08-30T17:48:02.736Z,26.50
2022-08-30T17:50:29.643Z,26.40
2022-08-30T17:53:00.595Z,26.30
2022-08-30T17:58:03.803Z,26.20
2022-08-30T18:00:30.882Z,26.10
2022-08-30T18:02:58.484Z,26.00
2022-08-30T18:05:25.666Z,26.10
2022-08-30T18:07:52.739Z,26.00
2022-08-30T18:12:48.212Z,25.80
2022-08-30T18:15:16.569Z,25.70
2022-08-30T18:17:47.668Z,25.60
2022-08-30T18:20:17.907Z,25.50
2022-08-30T18:22:45.069Z,25.50
2022-08-30T18:25:12.065Z,25.50
2022-08-30T18:27:39.359Z,25.30
2022-08-30T18:30:11.562Z,25.30
2022-08-30T18:32:38.870Z,25.20
2022-08-30T18:35:06.680Z,25.20
2022-08-30T18:37:36.290Z,25.10
2022-08-30T18:40:04.516Z,25.10
2022-08-30T18:42:31.958Z,25.00
2022-08-30T18:44:58.951Z,25.00
2022-08-30T18:47:36.335Z,24.90
2022-08-30T18:50:04.983Z,24.80
2022-08-30T18:52:32.715Z,24.80
2022-08-30T18:54:59.640Z,24.70
2022-08-30T18:57:26.877Z,24.70
2022-08-30T18:59:55.076Z,24.60
2022-08-30T19:02:21.949Z,24.70
2022-08-30T19:04:54.777Z,24.50
2022-08-30T19:07:28.937Z,24.60
2022-08-30T19:10:01.377Z,24.60
2022-08-30T19:12:28.713Z,24.50
2022-08-30T19:14:56.240Z,24.40
2022-08-30T19:17:24.000Z,24.30
2022-08-30T19:19:52.132Z,24.30
2022-08-30T19:22:21.085Z,24.20
2022-08-30T19:24:49.770Z,24.10
2022-08-30T19:27:19.214Z,24.00
2022-08-30T19:29:53.702Z,24.00
2022-08-30T19:32:21.460Z,24.00
2022-08-30T19:34:48.517Z,23.80
2022-08-30T19:37:18.487Z,24.00
2022-08-30T19:39:46.825Z,23.80
2022-08-30T19:42:14.207Z,23.70
2022-08-30T19:44:41.030Z,23.60
2022-08-30T19:47:08.174Z,23.60
2022-08-30T19:49:35.911Z,23.60
2022-08-30T19:52:03.553Z,23.60
2022-08-30T19:54:30.598Z,23.50
2022-08-30T19:56:57.548Z,23.40
2022-08-30T19:59:27.365Z,23.50
2022-08-30T20:01:56.707Z,23.40
2022-08-30T20:04:23.584Z,23.30
2022-08-30T20:06:51.092Z,23.30
2022-08-30T20:09:18.016Z,23.20
2022-08-30T20:11:44.982Z,23.20
2022-08-30T20:14:16.448Z,23.20
2022-08-30T20:16:43.472Z,23.20
2022-08-30T20:19:14.890Z,23.10
2022-08-30T20:21:41.798Z,23.10
2022-08-30T20:24:09.655Z,23.10
2022-08-30T20:26:37.860Z,23.10
2022-08-30T20:29:05.986Z,23.00
2022-08-30T20:31:33.674Z,23.00
2022-08-30T20:34:01.288Z,22.90
2022-08-30T20:36:28.242Z,22.80
2022-08-30T20:38:55.149Z,22.90
2022-08-30T20:41:22.432Z,22.80
2022-08-30T20:43:50.264Z,22.80
2022-08-30T20:46:19.545Z,22.70
2022-08-30T20:48:47.812Z,22.70
2022-08-30T20:51:17.752Z,22.70
2022-08-30T20:53:45.182Z,22.70
2022-08-30T20:56:15.560Z,22.70
2022-08-30T20:58:43.175Z,22.60
2022-08-30T21:01:11.587Z,22.70
2022-08-30T21:03:39.590Z,22.70
2022-08-30T21:06:07.553Z,22.60
2022-08-30T21:08:35.118Z,22.50
2022-08-30T21:11:02.022Z,22.50
2022-08-30T21:13:29.223Z,22.50
2022-08-30T21:16:00.611Z,22.40
2022-08-30T21:18:33.111Z,22.40
2022-08-30T21:21:12.425Z,22.40
2022-08-30T21:23:39.813Z,22.20
2022-08-30T21:26:07.717Z,22.30
2022-08-30T21:28:34.848Z,22.40
2022-08-30T21:31:07.970Z,22.30
2022-08-30T21:33:35.632Z,22.20
2022-08-30T21:36:23.061Z,22.30
2022-08-30T21:38:50.095Z,22.40
2022-08-30T21:41:17.172Z,22.40
2022-08-30T21:43:44.231Z,22.30
2022-08-30T21:46:11.308Z,22.20
2022-08-30T21:48:38.203Z,22.20
2022-08-30T21:51:09.863Z,22.10
2022-08-30T21:53:37.619Z,22.20
2022-08-30T21:56:25.275Z,22.30
2022-08-30T21:58:52.191Z,22.30
2022-08-30T22:01:24.824Z,22.30
2022-08-30T22:03:57.165Z,22.20
2022-08-30T22:06:30.960Z,22.10
2022-08-30T22:08:59.735Z,22.10
2022-08-30T22:11:28.514Z,22.20
2022-08-30T22:13:55.853Z,22.20
2022-08-30T22:16:23.745Z,22.20
2022-08-30T22:18:51.473Z,22.20
2022-08-30T22:21:25.078Z,22.20
2022-08-30T22:23:52.367Z,22.20
2022-08-30T22:26:20.695Z,22.20
2022-08-30T22:28:48.159Z,22.10
2022-08-30T22:31:16.573Z,21.90
2022-08-30T22:33:44.629Z,21.80
2022-08-30T22:36:33.029Z,21.80
2022-08-30T22:39:01.849Z,21.80
2022-08-30T22:41:31.687Z,21.80
2022-08-30T22:43:58.865Z,21.90
2022-08-30T22:46:34.624Z,21.80
2022-08-30T22:49:06.857Z,21.70
2022-08-30T22:51:34.530Z,21.60
2022-08-30T22:54:02.021Z,21.60
2022-08-30T22:56:29.523Z,21.70
2022-08-30T22:58:56.489Z,21.60
2022-08-30T23:01:29.888Z,21.60
2022-08-30T23:03:58.271Z,21.60
2022-08-30T23:06:25.535Z,21.50
2022-08-30T23:08:52.783Z,21.50
2022-08-30T23:11:20.184Z,21.50
2022-08-30T23:13:47.735Z,21.50
2022-08-30T23:16:15.795Z,21.40
2022-08-30T23:18:45.472Z,21.20
2022-08-30T23:21:16.164Z,21.00
2022-08-30T23:24:01.889Z,20.90
2022-08-30T23:26:47.830Z,20.70
2022-08-30T23:29:33.680Z,20.50
2022-08-30T23:32:19.173Z,20.50
2022-08-30T23:35:05.024Z,20.40
2022-08-30T23:37:53.116Z,20.30
2022-08-30T23:40:39.543Z,20.30
2022-08-30T23:43:25.690Z,20.30
2022-08-30T23:46:11.199Z,20.30
2022-08-30T23:49:05.803Z,20.30
2022-08-30T23:51:51.153Z,20.40
2022-08-30T23:54:36.331Z,20.40
2022-08-30T23:57:21.766Z,20.10
